Time;durP1;ratioP1;P1;durP2;ratioP2;P2;SDS_P1;SDS_P2;PMS_P1;PMS_P2;Temp;Humidity;BMP_temperature;BMP_pressure;BME280_temperature;BME280_humidity;BME280_pressure;Samples;Min_cycle;Max_cycle;Signal;HPM_P1;HPM_P2
2021/07/09 00:01:40;;;;;;;9.55;5.85;;;;;;;21.02;100.00;95248.38;10571151;28;20028;-77
2021/07/09 00:06:43;;;;;;;9.45;6.43;;;;;;;20.73;100.00;95247.97;10571286;28;20110;-76
2021/07/09 00:11:46;;;;;;;10.60;7.35;;;;;;;20.55;100.00;95247.16;10570863;28;20489;-76
2021/07/09 00:16:47;;;;;;;7.35;5.68;;;;;;;20.37;100.00;95267.44;10571090;28;20023;-76
2021/07/09 00:21:48;;;;;;;8.82;5.85;;;;;;;20.10;100.00;95258.47;10569642;27;20039;-76
2021/07/09 00:26:49;;;;;;;8.75;6.70;;;;;;;20.03;100.00;95258.16;10596049;27;20526;-76
2021/07/09 00:31:49;;;;;;;8.67;6.40;;;;;;;19.76;100.00;95265.47;10554045;27;20031;-76
2021/07/09 00:36:50;;;;;;;12.23;7.73;;;;;;;19.80;100.00;95250.09;10611951;27;20059;-76
2021/07/09 00:41:50;;;;;;;9.83;7.20;;;;;;;19.66;100.00;95244.78;10593822;27;20031;-76
2021/07/09 00:46:51;;;;;;;12.03;7.43;;;;;;;19.47;100.00;95247.78;10591153;28;20028;-75
2021/07/09 00:51:51;;;;;;;14.70;7.53;;;;;;;19.32;100.00;95240.84;10569115;28;20030;-76
2021/07/09 00:56:52;;;;;;;10.17;6.87;;;;;;;19.30;100.00;95237.63;10569430;28;20026;-75
2021/07/09 01:01:53;;;;;;;15.65;6.97;;;;;;;19.34;100.00;95230.44;10569580;28;20280;-75
2021/07/09 01:06:54;;;;;;;11.80;8.52;;;;;;;19.36;100.00;95224.66;10569593;28;20028;-75
2021/07/09 01:11:55;;;;;;;8.55;6.63;;;;;;;19.26;100.00;95225.75;10550443;28;20043;-76
2021/07/09 01:16:55;;;;;;;10.20;6.65;;;;;;;19.18;100.00;95223.81;10570036;28;20486;-76
2021/07/09 01:21:56;;;;;;;11.25;6.97;;;;;;;19.30;100.00;95232.19;10568832;28;20059;-76
2021/07/09 01:26:57;;;;;;;9.75;5.78;;;;;;;19.17;100.00;95233.88;10568444;28;20027;-76
2021/07/09 01:31:58;;;;;;;7.22;6.43;;;;;;;19.10;100.00;95244.44;10563684;28;20478;-76
2021/07/09 01:37:16;;;;;;;11.85;7.22;;;;;;;19.12;100.00;95237.56;10558554;28;20027;-76
2021/07/09 01:42:16;;;;;;;14.87;6.63;;;;;;;19.14;100.00;95242.69;10576445;28;20066;-76
2021/07/09 01:47:17;;;;;;;13.20;7.37;;;;;;;19.14;100.00;95245.41;10576069;28;20407;-76
2021/07/09 01:52:18;;;;;;;12.93;7.18;;;;;;;19.13;100.00;95243.81;10576200;28;20028;-76
2021/07/09 01:57:19;;;;;;;10.18;7.72;;;;;;;19.22;100.00;95247.38;10576784;28;20035;-76
2021/07/09 02:02:19;;;;;;;8.85;6.57;;;;;;;19.23;100.00;95238.09;10575349;28;20391;-76
2021/07/09 02:07:21;;;;;;;10.17;7.40;;;;;;;19.27;100.00;95240.97;10574160;28;20031;-75
2021/07/09 02:12:24;;;;;;;9.65;6.13;;;;;;;19.32;100.00;95246.28;10555574;28;20031;-75
2021/07/09 02:17:24;;;;;;;10.57;6.80;;;;;;;19.32;100.00;95245.50;10587854;28;20135;-75
2021/07/09 02:22:24;;;;;;;11.93;7.07;;;;;;;19.15;100.00;95243.50;10573342;28;20052;-75
2021/07/09 02:27:25;;;;;;;13.60;7.03;;;;;;;19.22;100.00;95246.59;10554842;28;20347;-76
2021/07/09 02:32:25;;;;;;;16.33;7.43;;;;;;;19.28;100.00;95256.22;10572856;28;20102;-76
2021/07/09 02:37:26;;;;;;;8.33;6.93;;;;;;;19.28;100.00;95251.56;10572754;28;20265;-75
2021/07/09 02:42:26;;;;;;;8.65;7.32;;;;;;;19.26;100.00;95253.00;10573009;28;20019;-75
2021/07/09 02:47:27;;;;;;;11.40;7.47;;;;;;;19.19;100.00;95249.94;10572378;28;20031;-76
2021/07/09 02:52:27;;;;;;;15.13;8.33;;;;;;;19.03;100.00;95263.97;10572183;28;20072;-76
2021/07/09 02:57:27;;;;;;;15.10;7.73;;;;;;;19.05;100.00;95258.22;10554449;28;20043;-76
2021/07/09 03:02:28;;;;;;;11.00;8.00;;;;;;;19.12;100.00;95255.84;10573260;28;20035;-76
2021/07/09 03:07:28;;;;;;;9.40;7.47;;;;;;;19.04;100.00;95264.78;10572673;28;20027;-76
2021/07/09 03:12:29;;;;;;;10.43;7.23;;;;;;;18.99;100.00;95254.00;10572446;28;20659;-76
2021/07/09 03:17:29;;;;;;;9.18;6.85;;;;;;;18.75;100.00;95255.97;10571648;28;20027;-75
2021/07/09 03:22:30;;;;;;;15.27;7.57;;;;;;;18.83;100.00;95259.06;10571975;28;20055;-75
2021/07/09 03:27:30;;;;;;;11.63;7.93;;;;;;;18.69;100.00;95257.22;10570924;28;20370;-75
2021/07/09 03:32:30;;;;;;;11.27;8.27;;;;;;;18.60;100.00;95265.34;10570353;28;20352;-75
2021/07/09 03:37:31;;;;;;;11.10;7.40;;;;;;;18.61;100.00;95266.94;10568932;28;20020;-75
2021/07/09 03:42:31;;;;;;;14.30;7.60;;;;;;;18.70;100.00;95260.72;10569637;28;20126;-75
2021/07/09 03:47:31;;;;;;;11.27;7.47;;;;;;;18.79;100.00;95265.09;10568618;28;20035;-74
2021/07/09 03:52:32;;;;;;;10.30;7.20;;;;;;;19.00;100.00;95261.06;10550874;28;20035;-75
2021/07/09 03:57:33;;;;;;;12.32;7.50;;;;;;;19.14;100.00;95245.41;10569377;28;20268;-75
2021/07/09 04:02:33;;;;;;;23.45;8.13;;;;;;;19.28;100.00;95246.13;10582617;27;20051;-75
2021/07/09 04:07:34;;;;;;;9.93;7.33;;;;;;;19.43;100.00;95242.13;10579985;27;20028;-75
2021/07/09 04:12:34;;;;;;;10.70;7.20;;;;;;;19.56;100.00;95243.13;10570941;28;20486;-75
2021/07/09 04:17:35;;;;;;;13.40;8.45;;;;;;;19.78;100.00;95246.84;10580998;27;20049;-75
2021/07/09 04:22:35;;;;;;;15.25;9.60;;;;;;;19.97;100.00;95250.09;10570740;27;20055;-75
2021/07/09 04:27:37;;;;;;;13.63;7.80;;;;;;;20.28;100.00;95253.81;10569272;28;20027;-75
2021/07/09 04:32:37;;;;;;;10.68;7.10;;;;;;;20.85;100.00;95241.84;10581650;27;20368;-75
2021/07/09 04:37:38;;;;;;;13.52;8.20;;;;;;;21.51;100.00;95243.31;10593573;27;20526;-76
2021/07/09 04:42:38;;;;;;;10.60;6.78;;;;;;;22.08;100.00;95243.91;10561354;28;20023;-75
2021/07/09 04:47:39;;;;;;;10.87;6.83;;;;;;;22.48;100.00;95246.16;10571704;28;20032;-76
2021/07/09 04:52:40;;;;;;;9.50;7.03;;;;;;;22.99;100.00;95240.47;10596883;27;20023;-75
2021/07/09 04:57:40;;;;;;;11.30;7.40;;;;;;;23.37;100.00;95242.13;10599609;28;20122;-76
2021/07/09 05:02:41;;;;;;;10.07;7.25;;;;;;;23.43;100.00;95243.50;10584820;27;20445;-75
2021/07/09 05:07:42;;;;;;;10.50;7.22;;;;;;;24.04;100.00;95239.09;10581635;28;20032;-76
2021/07/09 05:12:42;;;;;;;10.82;7.95;;;;;;;23.87;100.00;95234.66;10585346;27;20023;-76
2021/07/09 05:17:43;;;;;;;17.27;8.07;;;;;;;24.20;100.00;95234.47;10605931;27;20015;-75
2021/07/09 05:22:43;;;;;;;11.45;7.93;;;;;;;24.64;100.00;95224.69;10580806;27;20301;-75
2021/07/09 05:27:44;;;;;;;10.30;6.37;;;;;;;25.01;100.00;95217.03;10577903;28;20076;-75
2021/07/09 05:32:44;;;;;;;12.77;6.33;;;;;;;25.60;100.00;95214.53;10577539;28;20038;-75
2021/07/09 05:37:45;;;;;;;9.70;5.70;;;;;;;26.10;100.00;95212.88;10577669;28;20269;-75
2021/07/09 05:42:45;;;;;;;10.53;5.33;;;;;;;26.52;100.00;95213.31;10579552;27;20763;-75
2021/07/09 05:47:46;;;;;;;27.70;7.77;;;;;;;26.68;100.00;95204.94;10585259;27;20142;-75
2021/07/09 05:52:48;;;;;;;13.85;5.95;;;;;;;26.95;100.00;95208.63;10556505;28;20020;-75
2021/07/09 05:57:48;;;;;;;9.68;5.63;;;;;;;27.74;98.93;95214.63;10576011;28;20178;-75
2021/07/09 06:02:49;;;;;;;9.63;5.88;;;;;;;28.06;95.67;95214.28;10574763;28;20807;-75
2021/07/09 06:07:50;;;;;;;8.55;5.60;;;;;;;28.47;91.09;95209.69;10576270;28;20023;-75
2021/07/09 06:12:50;;;;;;;10.47;6.13;;;;;;;29.09;86.43;95197.28;10557683;28;20046;-75
2021/07/09 06:17:51;;;;;;;9.47;5.77;;;;;;;28.77;85.68;95203.31;10577355;28;20034;-75
2021/07/09 06:22:51;;;;;;;7.97;5.63;;;;;;;29.72;81.86;95194.59;10576089;28;20087;-75
2021/07/09 06:27:51;;;;;;;9.30;6.13;;;;;;;30.60;75.55;95188.34;10579073;27;20039;-75
2021/07/09 06:32:52;;;;;;;8.77;6.67;;;;;;;31.24;71.00;95190.44;10579179;27;20352;-75
2021/07/09 06:37:52;;;;;;;11.47;6.27;;;;;;;32.22;63.91;95195.88;10592281;27;20360;-76
2021/07/09 06:42:53;;;;;;;7.40;6.00;;;;;;;32.21;60.48;95192.31;10609719;27;20028;-75
2021/07/09 06:47:53;;;;;;;11.90;6.18;;;;;;;33.07;56.86;95196.66;10585186;27;20442;-75
2021/07/09 06:52:54;;;;;;;7.73;5.53;;;;;;;33.21;53.03;95187.41;10578531;27;20024;-75
2021/07/09 06:57:54;;;;;;;6.43;3.83;;;;;;;33.56;50.73;95188.31;10589699;27;20031;-75
2021/07/09 07:02:54;;;;;;;8.07;4.00;;;;;;;33.76;49.93;95171.84;10574544;27;20035;-74
2021/07/09 07:07:55;;;;;;;8.80;4.17;;;;;;;34.67;47.92;95166.00;10604238;27;20412;-75
2021/07/09 07:12:55;;;;;;;7.90;3.60;;;;;;;34.85;44.69;95163.78;10598504;27;20883;-75
2021/07/09 07:17:55;;;;;;;4.63;3.20;;;;;;;35.63;41.93;95168.53;10615590;27;20019;-77
2021/07/09 07:22:56;;;;;;;6.37;2.57;;;;;;;35.68;40.20;95167.25;10616418;27;20035;-76
2021/07/09 07:27:57;;;;;;;11.70;2.90;;;;;;;35.71;41.93;95156.00;10594706;27;20372;-76
2021/07/09 07:32:58;;;;;;;5.65;3.20;;;;;;;36.88;40.34;95156.09;10587723;27;20038;-75
2021/07/09 07:37:58;;;;;;;3.38;3.08;;;;;;;36.81;38.12;95156.25;10602123;27;20480;-75
2021/07/09 07:42:59;;;;;;;6.13;3.80;;;;;;;37.77;37.06;95154.38;10609540;27;20080;-75
2021/07/09 07:47:59;;;;;;;7.17;3.47;;;;;;;37.21;37.06;95152.53;10613192;27;20023;-75
2021/07/09 07:53:00;;;;;;;4.55;3.55;;;;;;;37.92;36.06;95154.78;10614851;27;20154;-75
2021/07/09 07:58:00;;;;;;;6.97;3.43;;;;;;;37.98;33.96;95152.22;10613815;27;20478;-75
2021/07/09 08:03:01;;;;;;;6.53;4.07;;;;;;;37.90;35.54;95141.19;10595612;27;20659;-75
2021/07/09 08:08:05;;;;;;;5.67;4.03;;;;;;;38.45;34.97;95144.06;10613189;27;20031;-75
2021/07/09 08:13:07;;;;;;;9.35;4.13;;;;;;;38.79;34.61;95134.22;10613969;27;20849;-75
2021/07/09 08:18:07;;;;;;;9.07;5.22;;;;;;;38.26;34.70;95122.56;10612863;27;20068;-75
2021/07/09 08:23:08;;;;;;;6.85;4.65;;;;;;;34.82;40.59;95133.91;10613729;27;20039;-75
2021/07/09 08:28:08;;;;;;;6.45;4.07;;;;;;;35.77;39.25;95125.53;10591891;27;20031;-75
2021/07/09 08:33:09;;;;;;;5.97;3.70;;;;;;;36.46;38.11;95130.59;10570627;28;20016;-75
2021/07/09 08:38:10;;;;;;;3.90;3.00;;;;;;;36.36;35.15;95120.41;10570536;28;20453;-75
2021/07/09 08:43:10;;;;;;;4.80;2.87;;;;;;;37.50;33.98;95112.56;10570420;28;20023;-75
2021/07/09 08:48:13;;;;;;;3.13;2.60;;;;;;;38.90;31.10;95111.41;10550395;28;20106;-75
2021/07/09 08:53:13;;;;;;;4.10;3.20;;;;;;;38.39;32.13;95103.72;10570498;28;20031;-75
2021/07/09 08:58:14;;;;;;;4.33;2.83;;;;;;;39.68;30.77;95100.06;10570110;28;20024;-75
2021/07/09 09:03:20;;;;;;;5.80;3.47;;;;;;;39.91;31.27;95101.63;10569695;28;20024;-76
2021/07/09 09:08:22;;;;;;;5.78;3.47;;;;;;;40.70;30.29;95100.75;10569439;28;20467;-76
2021/07/09 09:13:26;;;;;;;6.57;3.65;;;;;;;41.28;29.21;95096.41;10569629;28;20567;-76
2021/07/09 09:18:32;;;;;;;9.00;3.65;;;;;;;39.43;30.58;95088.41;10580538;28;20122;-75
2021/07/09 09:23:35;;;;;;;5.25;4.13;;;;;;;38.07;34.10;95087.78;10574542;28;20067;-75
2021/07/09 09:28:37;;;;;;;5.32;3.53;;;;;;;38.06;33.16;95080.63;10569443;28;20040;-75
2021/07/09 09:33:37;;;;;;;6.47;3.83;;;;;;;38.92;32.10;95077.22;10578951;28;20076;-75
2021/07/09 09:38:38;;;;;;;4.03;3.00;;;;;;;40.44;29.63;95076.34;10573972;28;20092;-75
2021/07/09 09:43:38;;;;;;;6.63;3.23;;;;;;;39.26;30.88;95068.09;10568208;28;20023;-75
2021/07/09 09:48:44;;;;;;;7.63;3.20;;;;;;;39.56;30.62;95067.88;10565421;28;20550;-75
2021/07/09 09:53:48;;;;;;;6.03;3.20;;;;;;;38.14;31.71;95082.00;10575005;27;20422;-75
2021/07/09 09:59:11;;;;;;;5.80;3.90;;;;;;;35.48;36.67;95072.94;10574545;28;20134;-74
2021/07/09 10:04:12;;;;;;;5.63;3.40;;;;;;;37.42;33.14;95073.50;10572872;27;20493;-75
2021/07/09 10:09:13;;;;;;;4.50;3.40;;;;;;;34.78;35.88;95071.72;10576205;27;20026;-74
2021/07/09 10:14:21;;;;;;;7.97;3.28;;;;;;;37.57;32.29;95062.69;10573540;27;20081;-74
2021/07/09 10:19:28;;;;;;;3.17;2.88;;;;;;;38.09;30.91;95054.47;10572167;28;20265;-75
2021/07/09 10:24:29;;;;;;;4.50;3.30;;;;;;;36.81;32.74;95055.41;10569241;28;20069;-75
2021/07/09 10:29:34;;;;;;;4.70;3.17;;;;;;;38.37;31.31;95038.03;10553092;28;20027;-73
2021/07/09 10:34:39;;;;;;;;;;;;;;;39.77;29.52;95026.97;10570785;28;20497;-75
2021/07/09 10:39:43;;;;;;;5.30;2.78;;;;;;;41.28;26.34;95020.25;10570980;28;20760;-74
2021/07/09 10:45:08;;;;;;;2.40;2.20;;;;;;;40.78;27.46;95020.31;10576410;27;20487;-74
2021/07/09 10:50:11;;;;;;;3.87;2.10;;;;;;;41.34;26.96;95018.41;10594075;27;20138;-74
2021/07/09 10:55:37;;;;;;;4.80;1.67;;;;;;;40.76;26.89;95005.91;10612104;27;20023;-74
2021/07/09 11:00:48;;;;;;;2.03;1.83;;;;;;;40.18;27.97;95007.38;10562432;27;20036;-75
2021/07/09 11:05:49;;;;;;;1.85;1.73;;;;;;;38.61;29.63;94996.31;10571005;28;20099;-75
2021/07/09 11:10:59;;;;;;;10.73;3.53;;;;;;;35.29;33.17;95007.41;10570988;28;20039;-74
2021/07/09 11:16:00;;;;;;;5.03;2.80;;;;;;;33.51;37.54;94996.50;10568211;28;20042;-74
2021/07/09 11:21:00;;;;;;;3.80;2.60;;;;;;;32.20;40.57;94987.72;10576267;27;20023;-74
2021/07/09 11:26:06;;;;;;;3.00;2.40;;;;;;;31.25;40.47;95002.41;10571394;28;20047;-74
2021/07/09 11:31:06;;;;;;;4.00;2.80;;;;;;;30.43;45.38;94987.41;10571910;28;20032;-74
2021/07/09 11:36:20;;;;;;;2.30;2.10;;;;;;;30.49;43.84;94980.28;10571012;28;20023;-74
2021/07/09 11:41:22;;;;;;;3.15;2.85;;;;;;;29.93;44.87;94977.84;10611688;27;20027;-74
2021/07/09 11:46:22;;;;;;;4.28;2.35;;;;;;;30.09;47.01;94973.91;10613489;27;20028;-74
2021/07/09 11:51:22;;;;;;;3.27;2.53;;;;;;;29.91;45.86;94957.25;10613577;27;20481;-74
2021/07/09 11:56:23;;;;;;;4.50;2.63;;;;;;;29.93;43.19;94952.91;10612916;27;20395;-74
2021/07/09 12:01:23;;;;;;;2.63;2.43;;;;;;;29.54;45.22;94953.56;10612940;27;20813;-74
2021/07/09 12:06:23;;;;;;;4.03;2.97;;;;;;;29.56;48.06;94953.19;10612611;27;20019;-74
2021/07/09 12:11:24;;;;;;;3.73;3.30;;;;;;;29.53;50.14;94959.47;10612908;27;20026;-74
2021/07/09 12:16:24;;;;;;;4.35;2.80;;;;;;;29.31;47.30;94943.59;10612613;27;20119;-74
2021/07/09 12:21:25;;;;;;;3.73;2.63;;;;;;;29.45;44.74;94945.63;10613074;27;20067;-74
2021/07/09 12:26:25;;;;;;;3.85;2.92;;;;;;;29.57;49.04;94946.44;10611043;27;20051;-74
2021/07/09 12:31:26;;;;;;;2.80;2.50;;;;;;;29.53;47.81;94946.44;10593764;27;20027;-74
2021/07/09 12:36:27;;;;;;;5.13;3.15;;;;;;;29.52;47.92;94939.31;10583051;27;20102;-74
2021/07/09 12:41:32;;;;;;;3.83;3.30;;;;;;;29.46;47.94;94925.06;10569584;28;20028;-74
2021/07/09 12:46:33;;;;;;;3.28;2.60;;;;;;;29.49;49.41;94929.03;10569079;28;20045;-74
2021/07/09 12:51:42;;;;;;;3.97;2.70;;;;;;;29.60;49.26;94929.06;10569464;28;20027;-74
2021/07/09 12:56:49;;;;;;;3.35;3.05;;;;;;;29.61;49.12;94933.41;10568846;28;20030;-74
2021/07/09 13:02:06;;;;;;;3.40;3.10;;;;;;;29.55;52.19;94919.13;10569173;28;20042;-74
2021/07/09 13:07:09;;;;;;;5.40;3.15;;;;;;;29.26;49.27;94924.59;10568682;28;20050;-74
2021/07/09 13:12:12;;;;;;;4.90;3.45;;;;;;;29.23;49.89;94907.94;10567641;28;20028;-75
2021/07/09 13:17:17;;;;;;;6.93;3.58;;;;;;;29.45;51.04;94914.38;10567042;28;20020;-75
2021/07/09 13:22:46;;;;;;;5.03;3.17;;;;;;;29.55;52.17;94890.66;10561625;28;20044;-75
2021/07/09 13:27:55;;;;;;;4.22;3.83;;;;;;;29.14;51.88;94906.31;10525819;28;20036;-75
2021/07/09 13:32:55;;;;;;;10.13;4.88;;;;;;;29.16;53.74;94894.88;10526871;28;20032;-75
2021/07/09 13:37:56;;;;;;;4.17;3.63;;;;;;;28.93;52.08;94890.44;10532376;28;20024;-75
2021/07/09 13:42:56;;;;;;;5.80;3.27;;;;;;;28.79;52.65;94890.38;10575689;28;20034;-75
2021/07/09 13:47:58;;;;;;;4.53;3.50;;;;;;;28.86;52.52;94890.41;10576308;28;20023;-75
2021/07/09 13:52:59;;;;;;;3.83;3.15;;;;;;;28.86;50.82;94882.09;10558095;28;20028;-75
2021/07/09 13:57:59;;;;;;;3.65;2.97;;;;;;;28.95;51.48;94882.50;10530071;28;20871;-75
2021/07/09 14:03:00;;;;;;;6.57;2.97;;;;;;;28.83;52.82;94887.59;10521709;28;20024;-75
2021/07/09 14:08:00;;;;;;;5.60;2.90;;;;;;;28.83;52.34;94874.59;10530824;28;20020;-75
2021/07/09 14:13:01;;;;;;;3.70;3.00;;;;;;;28.86;52.16;94868.28;10532203;28;20643;-75
2021/07/09 14:18:02;;;;;;;4.97;3.53;;;;;;;28.94;50.61;94861.59;10532550;28;20047;-75
2021/07/09 14:23:03;;;;;;;3.80;2.78;;;;;;;28.80;51.71;94869.81;10537722;28;20105;-75
2021/07/09 14:28:04;;;;;;;3.20;2.80;;;;;;;28.73;52.71;94864.25;10570712;28;20115;-75
2021/07/09 14:33:09;;;;;;;8.13;2.55;;;;;;;28.67;53.06;94855.53;10578884;28;20763;-75
2021/07/09 14:38:10;;;;;;;7.88;3.78;;;;;;;28.72;52.85;94863.47;10532856;28;20089;-74
2021/07/09 14:43:10;;;;;;;3.33;2.83;;;;;;;28.64;50.49;94864.59;10490292;28;20492;-76
2021/07/09 14:48:11;;;;;;;6.33;2.90;;;;;;;28.73;51.41;94858.72;10488134;28;20403;-75
2021/07/09 14:53:14;;;;;;;2.60;2.23;;;;;;;28.76;51.37;94855.97;10529458;28;20289;-75
2021/07/09 14:58:14;;;;;;;4.10;2.97;;;;;;;28.69;50.68;94846.84;10519861;28;20012;-76
2021/07/09 15:03:15;;;;;;;3.00;2.50;;;;;;;28.54;51.70;94840.44;10553876;28;20497;-76
2021/07/09 15:08:15;;;;;;;4.85;2.67;;;;;;;28.59;51.20;94842.81;10546658;28;20031;-76
2021/07/09 15:13:16;;;;;;;5.80;3.00;;;;;;;28.66;51.50;94850.38;10545361;28;20031;-76
2021/07/09 15:18:16;;;;;;;3.90;2.70;;;;;;;28.66;50.61;94840.09;10554563;28;20043;-76
2021/07/09 15:23:17;;;;;;;3.45;2.10;;;;;;;28.61;49.63;94840.47;10560947;28;20797;-76
2021/07/09 15:28:19;;;;;;;7.00;2.63;;;;;;;28.57;49.48;94845.19;10572589;28;20034;-76
2021/07/09 15:33:19;;;;;;;2.70;2.42;;;;;;;28.45;50.29;94844.34;10571293;28;20053;-76
2021/07/09 15:38:20;;;;;;;2.97;2.67;;;;;;;28.45;51.38;94849.84;10554015;28;20038;-76
2021/07/09 15:43:20;;;;;;;2.93;2.40;;;;;;;28.29;50.12;94850.13;10570920;28;20039;-76
2021/07/09 15:48:20;;;;;;;2.63;2.40;;;;;;;28.23;51.04;94845.34;10572397;28;20350;-76
2021/07/09 15:53:21;;;;;;;5.33;2.90;;;;;;;28.15;51.89;94833.47;10571867;28;20110;-76
2021/07/09 15:58:21;;;;;;;3.78;3.10;;;;;;;28.16;51.28;94837.03;10572933;28;20057;-76
2021/07/09 16:03:22;;;;;;;3.67;3.07;;;;;;;27.95;53.37;94838.41;10572348;28;20456;-76
2021/07/09 16:08:22;;;;;;;7.57;3.27;;;;;;;27.84;54.46;94848.59;10571948;28;20115;-76
2021/07/09 16:13:23;;;;;;;4.00;2.90;;;;;;;27.97;54.40;94833.31;10571339;28;20039;-76
2021/07/09 16:18:23;;;;;;;6.63;2.90;;;;;;;27.94;54.35;94831.31;10552099;28;20058;-76
2021/07/09 16:23:23;;;;;;;4.57;3.17;;;;;;;27.95;53.93;94832.88;10537520;28;20294;-76
2021/07/09 16:28:25;;;;;;;4.43;3.10;;;;;;;27.90;54.43;94834.03;10529621;28;21152;-76
2021/07/09 16:33:26;;;;;;;11.82;4.78;;;;;;;27.65;56.56;94833.06;10528478;28;20467;-76
2021/07/09 16:38:27;;;;;;;7.87;3.27;;;;;;;27.52;57.57;94827.81;10529278;28;20023;-75
2021/07/09 16:43:27;;;;;;;3.70;3.37;;;;;;;27.52;56.98;94832.53;10510317;28;20020;-76
2021/07/09 16:48:29;;;;;;;3.93;2.53;;;;;;;27.35;56.26;94829.25;10527815;28;20290;-76
2021/07/09 16:53:29;;;;;;;7.68;3.08;;;;;;;27.29;56.32;94837.03;10528684;28;20055;-76
2021/07/09 16:58:30;;;;;;;3.33;2.75;;;;;;;27.24;58.31;94839.34;10529123;28;20264;-76
2021/07/09 17:03:31;;;;;;;3.67;2.53;;;;;;;27.23;59.01;94848.78;10510116;28;20058;-76
2021/07/09 17:08:32;;;;;;;6.93;3.90;;;;;;;27.14;58.91;94835.31;10528632;28;20165;-76
2021/07/09 17:13:32;;;;;;;4.67;2.93;;;;;;;27.02;60.69;94833.59;10549173;28;20023;-76
2021/07/09 17:18:32;;;;;;;5.83;2.93;;;;;;;26.85;61.37;94829.47;10555835;28;20027;-76
2021/07/09 17:23:33;;;;;;;3.40;2.97;;;;;;;26.75;62.00;94843.88;10594069;27;20047;-76
2021/07/09 17:28:33;;;;;;;4.53;2.80;;;;;;;26.70;63.54;94844.25;10594398;27;20119;-75
2021/07/09 17:33:34;;;;;;;4.50;2.92;;;;;;;26.65;64.12;94836.25;10591989;27;20039;-75
2021/07/09 17:38:34;;;;;;;4.90;3.43;;;;;;;26.52;66.31;94832.94;10575764;27;20027;-75
2021/07/09 17:43:35;;;;;;;8.63;3.53;;;;;;;26.38;68.27;94839.84;10600654;27;20325;-76
2021/07/09 17:48:35;;;;;;;10.47;3.27;;;;;;;26.30;69.39;94838.16;10600976;27;20346;-76
2021/07/09 17:53:35;;;;;;;9.10;3.25;;;;;;;26.17;70.55;94840.34;10589619;27;20281;-76
2021/07/09 17:58:36;;;;;;;3.88;2.92;;;;;;;26.08;71.39;94848.88;10581170;27;20028;-75
2021/07/09 18:03:37;;;;;;;5.68;3.40;;;;;;;25.99;71.91;94845.53;10568085;27;20027;-75
2021/07/09 18:08:37;;;;;;;4.38;3.05;;;;;;;25.82;71.68;94851.59;10555674;28;20020;-75
2021/07/09 18:13:38;;;;;;;3.08;2.70;;;;;;;25.67;72.92;94873.34;10555736;28;20022;-75
2021/07/09 18:18:38;;;;;;;7.45;3.10;;;;;;;25.52;73.66;94872.31;10579580;27;20019;-75
2021/07/09 18:23:38;;;;;;;7.27;3.50;;;;;;;25.53;73.47;94884.13;10581050;27;20179;-75
2021/07/09 18:28:41;;;;;;;8.40;3.60;;;;;;;25.53;72.81;94879.41;10559281;27;20036;-75
2021/07/09 18:33:43;;;;;;;4.07;2.97;;;;;;;25.48;73.02;94881.66;10571994;28;20065;-77
2021/07/09 18:38:43;;;;;;;10.68;3.22;;;;;;;25.33;74.17;94878.66;10569607;27;20170;-76
2021/07/09 18:43:43;;;;;;;8.57;3.30;;;;;;;25.14;75.41;94892.41;10576829;27;20028;-76
2021/07/09 18:48:44;;;;;;;3.08;2.78;;;;;;;25.06;76.01;94886.75;10571348;28;20053;-75
2021/07/09 18:53:44;;;;;;;6.60;3.33;;;;;;;24.98;78.21;94886.97;10578191;27;20023;-74
2021/07/09 18:58:45;;;;;;;4.97;3.13;;;;;;;24.90;79.36;94886.03;10572531;27;20835;-74
2021/07/09 19:03:45;;;;;;;4.05;3.30;;;;;;;24.83;81.40;94894.94;10569922;28;20154;-74
2021/07/09 19:08:49;;;;;;;6.87;3.60;;;;;;;24.73;81.96;94879.81;10550898;28;20024;-74
2021/07/09 19:13:49;;;;;;;6.15;3.38;;;;;;;24.69;84.23;94895.41;10569477;28;20139;-74
2021/07/09 19:18:50;;;;;;;7.50;3.80;;;;;;;24.69;82.04;94887.19;10567441;28;20030;-74
2021/07/09 19:23:51;;;;;;;5.10;3.35;;;;;;;24.67;80.97;94897.75;10548727;28;20044;-74
2021/07/09 19:28:51;;;;;;;5.27;4.03;;;;;;;24.63;86.18;94896.06;10528776;28;20036;-75
2021/07/09 19:33:51;;;;;;;7.87;4.37;;;;;;;24.42;89.73;94902.66;10529127;28;20768;-76
2021/07/09 19:38:52;;;;;;;6.70;3.63;;;;;;;24.22;91.96;94896.31;10529401;28;20020;-74
2021/07/09 19:43:52;;;;;;;5.15;4.00;;;;;;;24.11;91.75;94885.06;10496788;28;20306;-75
2021/07/09 19:48:53;;;;;;;4.67;3.80;;;;;;;23.96;92.29;94883.94;10487955;28;20029;-75
2021/07/09 19:53:53;;;;;;;3.60;2.92;;;;;;;23.69;92.52;94877.38;10488275;28;20048;-75
2021/07/09 19:58:53;;;;;;;7.53;3.67;;;;;;;23.43;95.13;94884.19;10528677;28;20023;-75
2021/07/09 20:03:54;;;;;;;8.53;4.13;;;;;;;23.38;94.52;94863.28;10571910;28;20026;-75
2021/07/09 20:08:54;;;;;;;5.13;3.10;;;;;;;23.32;94.06;94867.44;10571897;28;20031;-76
2021/07/09 20:13:55;;;;;;;2.97;2.67;;;;;;;23.28;91.34;94866.53;10571200;28;20084;-76
2021/07/09 20:18:55;;;;;;;3.38;2.95;;;;;;;23.30;91.22;94866.19;10571681;28;20028;-76
2021/07/09 20:23:55;;;;;;;3.93;3.20;;;;;;;23.37;88.40;94867.19;10528712;28;20131;-76
2021/07/09 20:28:56;;;;;;;6.37;3.03;;;;;;;23.41;87.13;94871.97;10527735;28;20063;-76
2021/07/09 20:33:56;;;;;;;4.35;2.80;;;;;;;23.44;85.18;94858.31;10532703;28;20027;-76
2021/07/09 20:38:57;;;;;;;5.60;3.30;;;;;;;23.54;82.60;94851.50;10528325;28;20172;-76
2021/07/09 20:43:58;;;;;;;6.70;2.83;;;;;;;23.52;84.44;94865.59;10525864;28;20784;-76
2021/07/09 20:48:59;;;;;;;8.93;3.38;;;;;;;23.47;85.96;94852.16;10528512;28;20104;-76
2021/07/09 20:54:00;;;;;;;3.45;3.00;;;;;;;23.42;85.33;94860.63;10524400;28;20036;-76
2021/07/09 20:59:01;;;;;;;5.50;3.50;;;;;;;23.36;87.10;94868.31;10525402;28;20506;-76
2021/07/09 21:04:01;;;;;;;6.00;2.83;;;;;;;23.25;89.06;94872.72;10526226;28;20145;-76
2021/07/09 21:09:01;;;;;;;7.00;3.10;;;;;;;23.19;89.02;94868.63;10526244;28;20025;-76
2021/07/09 21:14:02;;;;;;;3.78;3.28;;;;;;;23.11;90.90;94872.31;10526839;28;20039;-76
2021/07/09 21:19:03;;;;;;;5.93;3.78;;;;;;;23.01;92.38;94881.81;10527009;28;20398;-76
2021/07/09 21:24:04;;;;;;;7.75;3.38;;;;;;;22.95;93.80;94892.25;10544412;28;20075;-76
2021/07/09 21:29:06;;;;;;;4.68;3.58;;;;;;;22.75;96.42;94887.78;10568241;28;20031;-76
2021/07/09 21:34:06;;;;;;;4.28;3.45;;;;;;;22.47;99.32;94915.91;10569844;28;20023;-76
2021/07/09 21:39:07;;;;;;;4.97;3.37;;;;;;;22.42;98.75;94925.13;10570409;28;20031;-76
2021/07/09 21:44:07;;;;;;;6.25;3.05;;;;;;;22.41;99.30;94929.03;10552073;28;20085;-76
2021/07/09 21:49:08;;;;;;;4.47;3.43;;;;;;;22.30;100.00;94939.63;10551343;28;20034;-76
2021/07/09 21:54:08;;;;;;;10.27;3.47;;;;;;;22.24;100.00;94946.47;10569330;28;20024;-76
2021/07/09 21:59:09;;;;;;;8.13;3.40;;;;;;;22.24;100.00;94930.03;10577259;28;20080;-76
2021/07/09 22:04:11;;;;;;;6.20;3.13;;;;;;;22.15;100.00;94932.91;10558751;28;20027;-76
2021/07/09 22:09:12;;;;;;;10.00;4.95;;;;;;;22.20;100.00;94940.06;10577442;28;20111;-76
2021/07/09 22:14:12;;;;;;;7.15;3.50;;;;;;;22.20;100.00;94956.50;10558459;28;20575;-76
2021/07/09 22:19:12;;;;;;;3.87;3.30;;;;;;;22.19;100.00;94965.88;10572873;28;20102;-76
2021/07/09 22:24:13;;;;;;;7.60;3.42;;;;;;;22.08;100.00;94968.25;10574632;28;20140;-76
2021/07/09 22:29:13;;;;;;;5.93;3.70;;;;;;;21.99;100.00;94956.59;10576071;28;20031;-76
2021/07/09 22:34:15;;;;;;;5.30;2.63;;;;;;;21.78;100.00;94962.16;10575637;28;20272;-76
2021/07/09 22:39:15;;;;;;;7.07;3.45;;;;;;;21.70;100.00;94947.47;10576421;28;20261;-76
2021/07/09 22:44:16;;;;;;;6.93;3.20;;;;;;;21.61;100.00;94939.34;10576219;28;20027;-76
2021/07/09 22:49:16;;;;;;;6.18;3.38;;;;;;;21.54;100.00;94944.56;10575380;28;20034;-76
2021/07/09 22:54:16;;;;;;;6.27;3.67;;;;;;;21.32;100.00;94953.91;10575599;28;20028;-76
2021/07/09 22:59:17;;;;;;;7.03;3.30;;;;;;;21.20;100.00;94948.44;10580699;28;20027;-76
2021/07/09 23:04:17;;;;;;;4.30;3.40;;;;;;;21.10;100.00;94947.69;10574964;28;20077;-76
2021/07/09 23:09:17;;;;;;;12.10;3.90;;;;;;;20.99;100.00;94941.84;10556442;28;20106;-76
2021/07/09 23:14:18;;;;;;;7.27;3.80;;;;;;;20.94;100.00;94946.72;10574521;28;20270;-76